createdAt,value
2019-02-19T00:00:35.896Z,7.90
2019-02-19T00:03:06.790Z,7.80
2019-02-19T00:05:36.900Z,7.90
2019-02-19T00:08:06.815Z,7.90
2019-02-19T00:10:36.727Z,8.10
2019-02-19T00:13:06.843Z,8.10
2019-02-19T00:15:36.948Z,8.20
2019-02-19T00:18:06.862Z,8.20
2019-02-19T00:20:36.775Z,8.30
2019-02-19T00:23:06.791Z,8.10
2019-02-19T00:25:37.094Z,7.90
2019-02-19T00:28:06.890Z,8.10
2019-02-19T00:30:36.823Z,7.90
2019-02-19T00:33:07.023Z,7.90
2019-02-19T00:35:37.142Z,7.80
2019-02-19T00:38:07.051Z,7.70
2019-02-19T00:40:37.097Z,7.70
2019-02-19T00:43:07.290Z,7.70
2019-02-19T00:45:37.677Z,7.70
2019-02-19T00:48:07.887Z,7.80
2019-02-19T00:50:37.707Z,7.70
2019-02-19T00:53:07.785Z,7.70
2019-02-19T00:55:37.929Z,7.60
2019-02-19T00:58:07.844Z,7.40
2019-02-19T01:00:37.717Z,7.70
2019-02-19T01:03:07.760Z,7.70
2019-02-19T01:05:37.869Z,7.70
2019-02-19T01:08:07.783Z,7.70
2019-02-19T01:10:37.991Z,7.80
2019-02-19T01:13:08.397Z,7.70
2019-02-19T01:15:38.191Z,7.60
2019-02-19T01:18:08.723Z,7.50
2019-02-19T01:20:39.222Z,7.60
2019-02-19T01:23:09.425Z,7.90
2019-02-19T01:25:39.339Z,7.90
2019-02-19T01:28:09.376Z,7.90
2019-02-19T01:30:39.614Z,8.00
2019-02-19T01:33:09.574Z,8.20
2019-02-19T01:35:39.684Z,8.20
2019-02-19T01:38:09.895Z,8.30
2019-02-19T01:40:40.286Z,8.30
2019-02-19T01:43:10.238Z,8.30
2019-02-19T01:45:40.429Z,8.20
2019-02-19T01:48:10.626Z,8.20
2019-02-19T01:50:40.750Z,8.20
2019-02-19T01:53:11.244Z,8.40
2019-02-19T01:55:41.838Z,8.20
2019-02-19T01:58:11.755Z,8.30
2019-02-19T02:00:42.457Z,8.50
2019-02-19T02:03:12.374Z,8.40
2019-02-19T02:05:42.368Z,8.50
2019-02-19T02:08:12.398Z,8.30
2019-02-19T02:10:42.318Z,8.40
2019-02-19T02:13:12.412Z,8.50
2019-02-19T02:15:42.965Z,8.40
2019-02-19T02:18:13.133Z,8.50
2019-02-19T02:20:43.038Z,8.50
2019-02-19T02:23:13.252Z,8.40
2019-02-19T02:25:43.555Z,8.50
2019-02-19T02:28:13.474Z,8.40
2019-02-19T02:30:43.399Z,8.20
2019-02-19T02:33:13.514Z,8.20
2019-02-19T02:35:43.600Z,8.20
2019-02-19T02:38:13.952Z,8.10
2019-02-19T02:40:44.019Z,8.10
2019-02-19T02:43:15.122Z,8.00
2019-02-19T02:45:52.894Z,7.90
2019-02-19T02:48:16.706Z,7.90
2019-02-19T02:50:47.210Z,8.00
2019-02-19T02:53:17.271Z,7.80
2019-02-19T02:55:47.359Z,7.80
2019-02-19T02:58:17.325Z,7.80
2019-02-19T03:00:47.698Z,7.90
2019-02-19T03:03:17.973Z,7.90
2019-02-19T03:06:05.466Z,7.80
2019-02-19T03:08:35.388Z,7.80
2019-02-19T03:11:05.495Z,7.90
2019-02-19T03:13:35.502Z,8.00
2019-02-19T03:16:05.424Z,7.90
2019-02-19T03:18:35.759Z,7.90
2019-02-19T03:21:05.727Z,7.90
2019-02-19T03:23:35.847Z,7.90
2019-02-19T03:26:05.870Z,7.80
2019-02-19T03:28:35.874Z,7.70
2019-02-19T03:31:05.790Z,7.70
2019-02-19T03:33:36.100Z,7.70
2019-02-19T03:36:06.392Z,7.60
2019-02-19T03:38:36.478Z,7.70
2019-02-19T03:41:06.915Z,7.70
2019-02-19T03:43:37.049Z,7.70
2019-02-19T03:46:12.130Z,7.60
2019-02-19T03:48:38.911Z,7.60
2019-02-19T03:51:08.827Z,7.70
2019-02-19T03:53:39.270Z,7.80
2019-02-19T03:56:09.585Z,7.70
2019-02-19T03:58:39.447Z,7.50
2019-02-19T04:01:09.267Z,7.60
2019-02-19T04:03:39.279Z,7.60
2019-02-19T04:06:09.651Z,7.60
2019-02-19T04:08:39.705Z,7.50
2019-02-19T04:11:09.709Z,7.60
2019-02-19T04:13:39.613Z,7.70
2019-02-19T04:16:09.628Z,7.50
2019-02-19T04:18:39.737Z,7.50
2019-02-19T04:21:09.654Z,7.30
2019-02-19T04:23:39.601Z,7.40
2019-02-19T04:26:10.159Z,7.50
2019-02-19T04:28:40.283Z,7.50
2019-02-19T04:31:10.236Z,7.60
2019-02-19T04:33:40.198Z,7.60
2019-02-19T04:36:10.115Z,7.60
2019-02-19T04:38:40.521Z,7.40
2019-02-19T04:41:10.433Z,7.30
2019-02-19T04:43:40.742Z,7.40
2019-02-19T04:46:10.653Z,7.50
2019-02-19T04:48:40.666Z,7.50
2019-02-19T04:51:11.074Z,7.60
2019-02-19T04:53:41.278Z,7.70
2019-02-19T04:56:11.914Z,7.60
2019-02-19T04:58:41.893Z,7.60
2019-02-19T05:01:11.805Z,7.60
2019-02-19T05:03:42.026Z,7.60
2019-02-19T05:06:11.927Z,7.60
2019-02-19T05:08:42.110Z,7.80
2019-02-19T05:11:12.050Z,7.80
2019-02-19T05:13:41.964Z,7.80
2019-02-19T05:16:11.977Z,7.80
2019-02-19T05:18:42.183Z,7.90
2019-02-19T05:21:12.194Z,8.00
2019-02-19T05:23:42.307Z,8.00
2019-02-19T05:26:12.218Z,7.90
2019-02-19T05:28:42.137Z,7.70
2019-02-19T05:31:12.046Z,7.60
2019-02-19T05:33:41.964Z,7.60
2019-02-19T05:36:12.465Z,7.80
2019-02-19T05:38:42.377Z,7.80
2019-02-19T05:41:12.785Z,7.90
2019-02-19T05:43:42.694Z,8.10
2019-02-19T05:46:12.607Z,8.20
2019-02-19T05:48:42.467Z,8.30
2019-02-19T05:51:12.435Z,8.30
2019-02-19T05:53:42.394Z,8.20
2019-02-19T05:56:12.362Z,8.10
2019-02-19T05:58:42.477Z,8.10
2019-02-19T06:01:12.601Z,8.10
2019-02-19T06:03:42.763Z,8.10
2019-02-19T06:06:12.704Z,8.30
2019-02-19T06:08:42.495Z,8.30
2019-02-19T06:11:12.827Z,8.20
2019-02-19T06:13:43.130Z,8.10
2019-02-19T06:16:13.054Z,8.20
2019-02-19T06:18:43.254Z,8.10
2019-02-19T06:21:13.265Z,8.30
2019-02-19T06:23:43.177Z,8.30
2019-02-19T06:26:13.092Z,8.50
2019-02-19T06:28:43.010Z,8.50
2019-02-19T06:31:12.918Z,8.40
2019-02-19T06:33:42.833Z,8.30
2019-02-19T06:36:12.750Z,8.40
2019-02-19T06:38:42.658Z,8.50
2019-02-19T06:41:13.063Z,8.50
2019-02-19T06:43:42.979Z,8.60
2019-02-19T06:46:12.989Z,8.60
2019-02-19T06:48:43.001Z,8.50
2019-02-19T06:51:12.917Z,8.60
2019-02-19T06:53:42.926Z,8.70
2019-02-19T06:56:12.840Z,8.70
2019-02-19T06:58:42.952Z,8.80
2019-02-19T07:01:13.353Z,8.70
2019-02-19T07:03:47.888Z,8.80
2019-02-19T07:06:17.801Z,9.20
2019-02-19T07:08:47.912Z,8.90
2019-02-19T07:11:18.021Z,8.90
2019-02-19T07:13:47.935Z,8.90
2019-02-19T07:16:17.850Z,8.90
2019-02-19T07:18:47.860Z,8.90
2019-02-19T07:21:18.070Z,8.90
2019-02-19T07:23:47.982Z,9.00
2019-02-19T07:26:18.005Z,9.00
2019-02-19T07:28:47.909Z,8.90
2019-02-19T07:31:18.115Z,8.90
2019-02-19T07:33:48.036Z,9.00
2019-02-19T07:36:18.149Z,9.00
2019-02-19T07:38:48.058Z,9.00
2019-02-19T07:41:17.969Z,9.00
2019-02-19T07:43:48.273Z,9.00
2019-02-19T07:46:18.245Z,9.00
2019-02-19T07:48:48.199Z,9.00
2019-02-19T07:51:18.212Z,9.00
2019-02-19T07:53:48.418Z,9.10
2019-02-19T07:56:18.432Z,9.20
2019-02-19T07:58:48.348Z,9.00
2019-02-19T08:01:18.263Z,9.00
2019-02-19T08:03:48.171Z,8.90
2019-02-19T08:06:18.476Z,8.80
2019-02-19T08:08:48.390Z,8.70
2019-02-19T08:11:18.602Z,8.80
2019-02-19T08:13:48.714Z,8.80
2019-02-19T08:16:19.070Z,8.90
2019-02-19T08:18:49.651Z,8.90
2019-02-19T08:21:19.629Z,8.80
2019-02-19T08:23:50.528Z,8.80
2019-02-19T08:26:20.634Z,8.80
2019-02-19T08:28:50.648Z,8.80
2019-02-19T08:31:20.560Z,8.80
2019-02-19T08:33:50.474Z,8.80
2019-02-19T08:36:20.388Z,8.70
2019-02-19T08:38:50.301Z,8.80
2019-02-19T08:41:20.217Z,8.90
2019-02-19T08:43:50.129Z,9.00
2019-02-19T08:46:20.043Z,9.00
2019-02-19T08:48:49.956Z,9.00
2019-02-19T08:51:19.867Z,9.00
2019-02-19T08:53:49.880Z,9.00
2019-02-19T08:56:19.892Z,9.00
2019-02-19T08:58:49.806Z,9.00
2019-02-19T09:01:19.819Z,9.20
2019-02-19T09:03:49.731Z,9.30
2019-02-19T09:06:19.648Z,9.30
2019-02-19T09:08:49.563Z,9.30
2019-02-19T09:11:19.570Z,9.50
2019-02-19T09:13:49.484Z,9.50
2019-02-19T09:16:19.501Z,9.60
2019-02-19T09:18:51.067Z,9.50
2019-02-19T09:21:21.103Z,9.30
2019-02-19T09:23:51.035Z,9.60
2019-02-19T09:26:21.018Z,9.90
2019-02-19T09:28:51.027Z,9.90
2019-02-19T09:31:20.942Z,9.80
2019-02-19T09:33:51.052Z,9.70
2019-02-19T09:36:20.965Z,9.80
2019-02-19T09:38:51.075Z,10.00
2019-02-19T09:41:21.012Z,10.10
2019-02-19T09:43:50.907Z,10.10
2019-02-19T09:46:21.889Z,10.20
2019-02-19T09:48:52.205Z,10.20
2019-02-19T09:51:22.014Z,10.20
2019-02-19T09:53:51.935Z,10.20
2019-02-19T09:56:21.747Z,10.30
2019-02-19T09:58:51.868Z,10.40
2019-02-19T10:01:21.667Z,10.60
2019-02-19T10:03:51.687Z,10.70
2019-02-19T10:06:21.551Z,10.80
2019-02-19T10:08:51.705Z,10.80
2019-02-19T10:11:21.511Z,10.80
2019-02-19T10:13:51.537Z,10.50
2019-02-19T10:16:21.556Z,10.50
2019-02-19T10:18:51.485Z,10.60
2019-02-19T10:21:21.516Z,10.80
2019-02-19T10:23:51.342Z,11.00
2019-02-19T10:26:21.179Z,11.00
2019-02-19T10:28:51.115Z,11.20
2019-02-19T10:31:21.243Z,11.20
2019-02-19T10:33:51.238Z,11.30
2019-02-19T10:36:21.184Z,11.40
2019-02-19T10:38:51.163Z,11.40
2019-02-19T10:41:21.175Z,11.30
2019-02-19T10:43:51.090Z,11.30
2019-02-19T10:46:21.006Z,11.60
2019-02-19T10:48:51.011Z,11.60
2019-02-19T10:51:20.927Z,11.60
2019-02-19T10:53:50.872Z,11.50
2019-02-19T10:56:21.002Z,11.70
2019-02-19T10:58:51.457Z,11.80
2019-02-19T11:01:21.305Z,12.00
2019-02-19T11:03:51.284Z,12.20
2019-02-19T11:06:21.094Z,12.70
2019-02-19T11:08:51.207Z,13.70
2019-02-19T11:11:21.179Z,14.80
2019-02-19T11:13:51.131Z,14.60
2019-02-19T11:16:21.061Z,14.40
2019-02-19T11:18:51.353Z,15.00
2019-02-19T11:21:21.176Z,14.70
2019-02-19T11:23:51.179Z,14.10
2019-02-19T11:26:21.195Z,14.80
2019-02-19T11:28:51.303Z,15.60
2019-02-19T11:31:21.122Z,16.40
2019-02-19T11:33:51.325Z,16.70
2019-02-19T11:36:21.238Z,16.90
2019-02-19T11:38:51.553Z,16.20
2019-02-19T11:41:21.455Z,16.00
2019-02-19T11:43:51.765Z,16.90
2019-02-19T11:46:21.678Z,17.60
2019-02-19T11:48:51.593Z,18.10
2019-02-19T11:51:21.799Z,17.20
2019-02-19T11:53:51.714Z,16.40
2019-02-19T11:56:21.730Z,16.30
2019-02-19T11:58:51.936Z,16.40
2019-02-19T12:01:21.849Z,16.00
2019-02-19T12:03:51.955Z,16.00
2019-02-19T12:06:21.877Z,16.10
2019-02-19T12:08:51.880Z,16.80
2019-02-19T12:11:21.796Z,17.50
2019-02-19T12:13:51.904Z,17.80
2019-02-19T12:16:21.921Z,16.70
2019-02-19T12:18:52.323Z,16.70
2019-02-19T12:21:22.234Z,17.00
2019-02-19T12:23:52.381Z,16.70
2019-02-19T12:26:22.552Z,17.40
2019-02-19T12:28:52.466Z,17.90
2019-02-19T12:31:22.384Z,18.40
2019-02-19T12:33:53.187Z,18.70
2019-02-19T12:36:23.092Z,19.00
2019-02-19T12:38:53.109Z,18.00
2019-02-19T12:41:23.114Z,17.10
2019-02-19T12:43:53.034Z,16.50
2019-02-19T12:46:23.138Z,16.90
2019-02-19T12:48:54.877Z,17.90
2019-02-19T12:51:26.725Z,17.50
2019-02-19T12:53:56.811Z,18.00
2019-02-19T12:56:26.841Z,17.30
2019-02-19T12:58:57.428Z,16.70
2019-02-19T13:01:27.350Z,16.80
2019-02-19T13:03:57.252Z,16.30
2019-02-19T13:06:27.362Z,16.40
2019-02-19T13:08:57.277Z,16.70
2019-02-19T13:11:27.488Z,16.30
2019-02-19T13:13:57.404Z,16.30
2019-02-19T13:16:27.412Z,16.90
2019-02-19T13:19:03.617Z,17.10
2019-02-19T13:21:29.498Z,16.70
2019-02-19T13:23:59.410Z,17.00
2019-02-19T13:26:29.617Z,17.00
2019-02-19T13:28:59.652Z,17.00
2019-02-19T13:31:29.661Z,17.00
2019-02-19T13:33:59.651Z,17.30
2019-02-19T13:36:29.863Z,17.40
2019-02-19T13:38:59.662Z,18.10
2019-02-19T13:41:29.785Z,18.50
2019-02-19T13:43:59.613Z,18.10
2019-02-19T13:46:29.626Z,18.10
2019-02-19T13:48:59.527Z,17.70
2019-02-19T13:51:29.590Z,17.20
2019-02-19T13:54:12.924Z,17.40
2019-02-19T13:56:42.933Z,17.10
2019-02-19T13:59:13.143Z,17.10
2019-02-19T14:01:43.054Z,18.10
2019-02-19T14:04:13.168Z,18.70
2019-02-19T14:06:43.083Z,18.10
2019-02-19T14:09:13.291Z,17.70
2019-02-19T14:11:43.399Z,17.80
2019-02-19T14:14:23.532Z,17.40
2019-02-19T14:16:55.034Z,17.50
2019-02-19T14:19:26.403Z,17.60
2019-02-19T14:21:57.894Z,18.00
2019-02-19T14:24:35.379Z,17.90
2019-02-19T14:27:07.159Z,18.00
2019-02-19T14:29:50.668Z,18.30
2019-02-19T14:32:38.539Z,18.40
2019-02-19T14:35:11.570Z,18.30
2019-02-19T14:37:43.187Z,18.40
2019-02-19T14:40:15.359Z,18.00
2019-02-19T14:43:03.556Z,17.60
2019-02-19T14:45:53.327Z,17.40
2019-02-19T14:48:24.915Z,16.80
2019-02-19T14:50:56.301Z,17.10
2019-02-19T14:53:33.689Z,17.00
2019-02-19T14:56:05.181Z,17.40
2019-02-19T14:58:53.076Z,17.40
2019-02-19T15:01:40.682Z,17.90
2019-02-19T15:04:14.923Z,18.10
2019-02-19T15:06:58.429Z,18.40
2019-02-19T15:09:36.235Z,18.30
2019-02-19T15:12:13.773Z,17.50
2019-02-19T15:14:54.488Z,17.20
2019-02-19T15:17:41.601Z,17.50
2019-02-19T15:20:13.186Z,17.60
2019-02-19T15:22:50.472Z,17.50
2019-02-19T15:25:38.779Z,17.00
2019-02-19T15:28:10.149Z,16.70
2019-02-19T15:30:53.738Z,16.40
2019-02-19T15:33:25.332Z,16.20
2019-02-19T15:36:08.705Z,16.60
2019-02-19T15:38:45.988Z,16.40
2019-02-19T15:41:33.894Z,15.80
2019-02-19T15:44:10.883Z,15.90
2019-02-19T15:46:57.507Z,15.80
2019-02-19T15:49:47.903Z,15.70
2019-02-19T15:52:23.482Z,15.50
2019-02-19T15:55:11.482Z,15.40
2019-02-19T15:57:45.921Z,15.30
2019-02-19T16:00:34.545Z,15.40
2019-02-19T16:03:05.929Z,15.60
2019-02-19T16:05:44.854Z,15.80
2019-02-19T16:08:16.538Z,15.90
2019-02-19T16:10:50.974Z,15.90
2019-02-19T16:13:25.605Z,15.90
2019-02-19T16:16:15.185Z,15.90
2019-02-19T16:18:52.661Z,15.80
2019-02-19T16:21:26.905Z,15.80
2019-02-19T16:24:13.624Z,15.70
2019-02-19T16:27:01.353Z,15.50
2019-02-19T16:29:42.359Z,15.50
2019-02-19T16:32:25.840Z,15.30
2019-02-19T16:34:57.212Z,15.00
2019-02-19T16:37:29.105Z,14.70
2019-02-19T16:40:03.637Z,14.60
2019-02-19T16:42:50.459Z,14.40
2019-02-19T16:45:40.721Z,14.30
2019-02-19T16:48:28.331Z,14.20
2019-02-19T16:51:00.109Z,14.00
2019-02-19T16:53:34.355Z,13.90
2019-02-19T16:56:12.615Z,13.90
2019-02-19T16:58:47.053Z,13.80
2019-02-19T17:01:35.249Z,13.80
2019-02-19T17:04:19.025Z,13.70
2019-02-19T17:06:56.505Z,13.70
2019-02-19T17:09:27.924Z,13.60
2019-02-19T17:12:11.768Z,13.50
2019-02-19T17:14:58.430Z,13.40
2019-02-19T17:17:33.392Z,13.50
2019-02-19T17:20:21.124Z,13.30
2019-02-19T17:22:43.964Z,13.30
2019-02-19T17:25:19.182Z,13.20
2019-02-19T17:27:57.064Z,13.20
2019-02-19T17:30:34.553Z,13.20
2019-02-19T17:33:22.249Z,13.20
2019-02-19T17:35:56.780Z,13.20
2019-02-19T17:38:34.459Z,13.10
2019-02-19T17:41:08.999Z,13.10
2019-02-19T17:43:46.508Z,13.00
2019-02-19T17:46:17.882Z,12.80
2019-02-19T17:48:52.332Z,12.80
2019-02-19T17:51:29.784Z,12.70
2019-02-19T17:54:16.802Z,12.70
2019-02-19T17:56:54.191Z,12.70
2019-02-19T17:59:28.818Z,12.50
2019-02-19T18:02:03.160Z,12.40
2019-02-19T18:04:35.429Z,12.40
2019-02-19T18:07:14.583Z,12.50
2019-02-19T18:10:00.042Z,12.40
2019-02-19T18:12:49.796Z,12.30
2019-02-19T18:15:36.623Z,12.30
2019-02-19T18:18:11.152Z,12.10
2019-02-19T18:20:47.256Z,12.00
2019-02-19T18:23:12.851Z,11.90
2019-02-19T18:25:43.054Z,11.90
2019-02-19T18:28:13.656Z,11.90
2019-02-19T18:30:43.668Z,11.80
2019-02-19T18:33:13.684Z,11.80
2019-02-19T18:35:43.989Z,11.70
2019-02-19T18:38:14.320Z,11.70
2019-02-19T18:40:44.306Z,11.70
2019-02-19T18:43:14.219Z,11.60
2019-02-19T18:45:44.525Z,11.60
2019-02-19T18:48:14.443Z,11.50
2019-02-19T18:50:44.650Z,11.50
2019-02-19T18:53:14.559Z,11.40
2019-02-19T18:55:44.679Z,11.50
2019-02-19T18:58:14.665Z,11.40
2019-02-19T19:00:44.600Z,11.20
2019-02-19T19:03:14.805Z,11.30
2019-02-19T19:05:44.726Z,11.30
2019-02-19T19:08:14.829Z,11.30
2019-02-19T19:10:44.741Z,11.20
2019-02-19T19:13:14.767Z,11.20
2019-02-19T19:15:44.666Z,10.90
2019-02-19T19:18:14.588Z,10.90
2019-02-19T19:20:44.591Z,10.70
2019-02-19T19:23:14.657Z,10.80
2019-02-19T19:25:44.495Z,10.70
2019-02-19T19:28:14.365Z,10.60
2019-02-19T19:30:44.433Z,10.70
2019-02-19T19:33:14.352Z,10.70
2019-02-19T19:35:44.707Z,11.00
2019-02-19T19:38:14.682Z,11.00
2019-02-19T19:40:44.784Z,11.00
2019-02-19T19:43:14.797Z,11.10
2019-02-19T19:45:44.812Z,11.00
2019-02-19T19:48:14.718Z,11.10
2019-02-19T19:50:44.934Z,11.20
2019-02-19T19:53:15.041Z,11.10
2019-02-19T19:55:45.073Z,11.20
2019-02-19T19:58:15.259Z,11.20
2019-02-19T20:00:45.074Z,11.20
2019-02-19T20:03:14.878Z,11.00
2019-02-19T20:05:45.194Z,10.80
2019-02-19T20:08:15.113Z,10.60
2019-02-19T20:10:45.219Z,10.50
2019-02-19T20:13:15.253Z,10.50
2019-02-19T20:15:45.390Z,10.40
2019-02-19T20:18:15.664Z,10.40
2019-02-19T20:20:45.758Z,10.20
2019-02-19T20:23:15.581Z,10.20
2019-02-19T20:25:45.483Z,10.10
2019-02-19T20:28:15.802Z,10.20
2019-02-19T20:30:45.706Z,10.20
2019-02-19T20:33:15.722Z,10.30
2019-02-19T20:35:45.925Z,10.20
2019-02-19T20:38:16.153Z,10.20
2019-02-19T20:40:46.236Z,10.30
2019-02-19T20:43:16.595Z,10.30
2019-02-19T20:45:46.991Z,10.40
2019-02-19T20:48:17.372Z,10.20
2019-02-19T20:50:48.028Z,10.30
2019-02-19T20:53:17.982Z,10.30
2019-02-19T20:55:51.008Z,10.40
2019-02-19T20:58:20.942Z,10.30
2019-02-19T21:00:51.062Z,10.20
2019-02-19T21:03:21.176Z,10.20
2019-02-19T21:05:51.666Z,10.20
2019-02-19T21:08:21.777Z,10.20
2019-02-19T21:10:52.150Z,10.30
2019-02-19T21:13:22.095Z,10.30
2019-02-19T21:15:52.105Z,10.10
2019-02-19T21:18:22.226Z,10.10
2019-02-19T21:20:52.325Z,10.10
2019-02-19T21:23:22.350Z,9.90
2019-02-19T21:25:52.351Z,9.80
2019-02-19T21:28:22.361Z,9.60
2019-02-19T21:30:52.575Z,9.60
2019-02-19T21:33:22.580Z,9.50
2019-02-19T21:35:52.870Z,9.30
2019-02-19T21:38:24.291Z,9.40
2019-02-19T21:40:54.095Z,9.30
2019-02-19T21:43:24.099Z,9.20
2019-02-19T21:45:54.211Z,9.20
2019-02-19T21:48:24.160Z,9.00
2019-02-19T21:50:54.232Z,8.90
2019-02-19T21:53:24.309Z,9.00
2019-02-19T21:55:54.277Z,9.00
2019-02-19T21:58:24.291Z,8.80
2019-02-19T22:00:54.280Z,8.80
2019-02-19T22:03:24.293Z,8.80
2019-02-19T22:05:54.400Z,8.70
2019-02-19T22:08:24.510Z,8.80
2019-02-19T22:10:54.893Z,8.50
2019-02-19T22:13:24.709Z,8.50
2019-02-19T22:15:54.690Z,8.50
2019-02-19T22:18:24.655Z,8.40
2019-02-19T22:20:59.214Z,8.40
2019-02-19T22:23:29.497Z,8.40
2019-02-19T22:25:59.909Z,8.40
2019-02-19T22:28:29.946Z,8.40
2019-02-19T22:31:00.220Z,8.30
2019-02-19T22:33:30.431Z,8.20
2019-02-19T22:36:00.342Z,8.20
2019-02-19T22:38:30.352Z,8.10
2019-02-19T22:41:00.268Z,8.10
2019-02-19T22:43:30.399Z,8.10
2019-02-19T22:46:00.584Z,8.00
2019-02-19T22:48:30.792Z,8.00
2019-02-19T22:51:00.709Z,8.10
2019-02-19T22:53:41.533Z,8.00
2019-02-19T22:56:13.117Z,7.80
2019-02-19T22:58:43.387Z,7.80
2019-02-19T23:01:23.364Z,7.80
2019-02-19T23:03:53.472Z,7.80
2019-02-19T23:06:23.386Z,7.70
2019-02-19T23:08:53.303Z,7.70
2019-02-19T23:11:23.310Z,7.70
2019-02-19T23:13:53.225Z,7.80
2019-02-19T23:16:23.184Z,7.80
2019-02-19T23:18:53.444Z,7.60
2019-02-19T23:21:23.647Z,7.70
2019-02-19T23:23:53.866Z,7.60
2019-02-19T23:26:23.775Z,7.80
2019-02-19T23:28:53.786Z,7.80
2019-02-19T23:31:23.703Z,7.70
2019-02-19T23:33:53.611Z,7.60
2019-02-19T23:36:28.153Z,7.60
2019-02-19T23:38:58.257Z,7.40
2019-02-19T23:41:28.178Z,7.60
2019-02-19T23:43:58.676Z,7.60
2019-02-19T23:46:28.787Z,7.50
2019-02-19T23:48:58.697Z,7.30
2019-02-19T23:51:28.995Z,7.40
2019-02-19T23:53:59.233Z,7.40
2019-02-19T23:56:29.127Z,7.30
2019-02-19T23:58:59.135Z,7.40
